createdAt,value
2022-11-16T00:01:00.498Z,48.45
2022-11-16T00:03:27.929Z,40.85
2022-11-16T00:05:59.035Z,44.00
2022-11-16T00:08:26.488Z,50.72
2022-11-16T00:10:53.803Z,43.22
2022-11-16T00:13:21.049Z,45.28
2022-11-16T00:15:56.878Z,42.28
2022-11-16T00:18:23.931Z,45.40
2022-11-16T00:20:51.652Z,46.20
2022-11-16T00:23:18.904Z,42.53
2022-11-16T00:25:46.265Z,49.03
2022-11-16T00:28:13.341Z,42.65
2022-11-16T00:30:40.825Z,44.67
2022-11-16T00:33:15.423Z,39.95
2022-11-16T00:35:42.644Z,42.63
2022-11-16T00:38:09.583Z,39.05
2022-11-16T00:40:36.882Z,38.83
2022-11-16T00:43:04.096Z,44.97
2022-11-16T00:45:31.393Z,45.65
2022-11-16T00:48:00.592Z,41.47
2022-11-16T00:50:29.412Z,40.75
2022-11-16T00:52:56.367Z,37.63
2022-11-16T00:55:23.558Z,43.90
2022-11-16T00:57:50.504Z,41.17
2022-11-16T01:00:18.711Z,41.03
2022-11-16T01:02:45.934Z,40.75
2022-11-16T01:05:13.468Z,44.42
2022-11-16T01:07:41.849Z,43.03
2022-11-16T01:10:12.665Z,52.88
2022-11-16T01:12:40.044Z,42.90
2022-11-16T01:15:09.129Z,37.42
2022-11-16T01:17:36.360Z,43.67
2022-11-16T01:20:06.128Z,38.35
2022-11-16T01:22:35.367Z,38.28
2022-11-16T01:25:04.667Z,37.17
2022-11-16T01:27:31.612Z,39.08
2022-11-16T01:29:59.127Z,42.05
2022-11-16T01:32:26.161Z,40.40
2022-11-16T01:34:53.656Z,39.55
2022-11-16T01:37:20.600Z,42.58
2022-11-16T01:39:49.406Z,42.88
2022-11-16T01:42:19.724Z,39.13
2022-11-16T01:45:16.060Z,43.67
2022-11-16T01:47:43.179Z,43.15
2022-11-16T01:50:14.401Z,42.95
2022-11-16T01:52:48.030Z,40.92
2022-11-16T01:55:16.212Z,43.40
2022-11-16T01:57:46.756Z,35.47
2022-11-16T02:00:15.571Z,33.97
2022-11-16T02:02:42.804Z,37.15
2022-11-16T02:05:12.847Z,32.28
2022-11-16T02:08:21.544Z,37.30
2022-11-16T02:11:11.172Z,32.05
2022-11-16T02:13:51.608Z,32.35
2022-11-16T02:16:30.479Z,37.95
2022-11-16T02:19:16.994Z,32.30
2022-11-16T02:21:51.155Z,30.08
2022-11-16T02:24:48.068Z,30.65
2022-11-16T02:27:40.181Z,28.25
2022-11-16T02:30:09.040Z,30.08
2022-11-16T02:32:39.675Z,34.58
2022-11-16T02:35:13.608Z,34.35
2022-11-16T02:37:46.803Z,32.05
2022-11-16T02:40:17.588Z,36.80
2022-11-16T02:42:51.364Z,33.80
2022-11-16T02:45:24.604Z,31.98
2022-11-16T02:47:56.941Z,34.10
2022-11-16T02:50:25.557Z,33.50
2022-11-16T02:52:52.716Z,32.17
2022-11-16T02:55:19.725Z,31.63
2022-11-16T02:57:51.512Z,28.55
2022-11-16T03:00:25.165Z,29.30
2022-11-16T03:03:07.287Z,33.17
2022-11-16T03:05:38.313Z,32.15
2022-11-16T03:08:14.690Z,32.90
2022-11-16T03:11:04.109Z,28.92
2022-11-16T03:13:35.023Z,29.80
2022-11-16T03:16:08.385Z,27.73
2022-11-16T03:18:38.906Z,28.25
2022-11-16T03:21:14.117Z,28.02
2022-11-16T03:23:41.724Z,25.98
2022-11-16T03:26:13.191Z,28.35
2022-11-16T03:28:50.221Z,33.03
2022-11-16T03:31:25.349Z,24.83
2022-11-16T03:33:56.138Z,33.42
2022-11-16T03:36:28.106Z,28.83
2022-11-16T03:39:00.606Z,28.98
2022-11-16T03:41:29.800Z,28.52
2022-11-16T03:43:59.433Z,28.52
2022-11-16T03:46:27.835Z,24.75
2022-11-16T03:48:57.377Z,27.70
2022-11-16T03:51:24.717Z,26.65
2022-11-16T03:53:51.969Z,28.02
2022-11-16T03:56:18.823Z,26.67
2022-11-16T03:58:46.159Z,24.33
2022-11-16T04:01:13.083Z,26.65
2022-11-16T04:03:41.943Z,28.33
2022-11-16T04:06:28.310Z,27.30
2022-11-16T04:09:14.514Z,26.67
2022-11-16T04:12:00.107Z,23.17
2022-11-16T04:14:47.386Z,28.05
2022-11-16T04:17:35.226Z,30.70
2022-11-16T04:20:23.047Z,30.90
2022-11-16T04:23:15.083Z,27.13
2022-11-16T04:25:44.397Z,26.65
2022-11-16T04:31:00.475Z,27.80
2022-11-16T04:33:54.892Z,30.58
2022-11-16T04:36:42.579Z,30.55
2022-11-16T04:39:09.570Z,30.00
2022-11-16T04:41:55.793Z,28.63
2022-11-16T04:44:28.830Z,28.75
2022-11-16T04:47:09.068Z,31.80
2022-11-16T04:49:35.862Z,27.45
2022-11-16T04:52:04.674Z,29.05
2022-11-16T04:54:31.588Z,29.67
2022-11-16T04:56:58.852Z,31.50
2022-11-16T04:59:25.736Z,29.15
2022-11-16T05:02:10.934Z,31.83
2022-11-16T05:04:39.793Z,26.90
2022-11-16T05:09:41.376Z,30.48
2022-11-16T05:12:09.900Z,29.33
2022-11-16T05:14:36.983Z,27.27
2022-11-16T05:17:04.184Z,27.88
2022-11-16T05:19:49.514Z,32.15
2022-11-16T05:22:18.193Z,34.42
2022-11-16T05:24:45.452Z,32.10
2022-11-16T05:27:15.354Z,30.30
2022-11-16T05:29:42.627Z,33.72
2022-11-16T05:32:18.870Z,29.52
2022-11-16T05:34:46.530Z,31.35
2022-11-16T05:37:17.058Z,29.17
2022-11-16T05:39:45.511Z,25.50
2022-11-16T05:42:12.811Z,28.80
2022-11-16T05:44:39.821Z,31.67
2022-11-16T05:47:08.566Z,25.73
2022-11-16T05:49:35.602Z,29.02
2022-11-16T05:52:05.261Z,32.10
2022-11-16T05:54:37.733Z,28.20
2022-11-16T05:57:06.346Z,27.83
2022-11-16T05:59:33.359Z,25.70
2022-11-16T06:02:00.597Z,26.77
2022-11-16T06:04:27.516Z,28.00
2022-11-16T06:06:54.751Z,26.92
2022-11-16T06:09:21.710Z,26.05
2022-11-16T06:11:48.959Z,26.63
2022-11-16T06:14:17.444Z,28.92
2022-11-16T06:16:44.760Z,25.85
2022-11-16T06:19:11.692Z,26.58
2022-11-16T06:21:38.990Z,27.95
2022-11-16T06:24:09.141Z,24.38
2022-11-16T06:26:37.216Z,27.48
2022-11-16T06:29:04.513Z,26.27
2022-11-16T06:31:33.113Z,25.80
2022-11-16T06:34:00.353Z,26.52
2022-11-16T06:36:27.454Z,29.35
2022-11-16T06:38:54.435Z,28.42
2022-11-16T06:41:22.041Z,30.13
2022-11-16T06:43:49.017Z,27.90
2022-11-16T06:46:16.250Z,28.75
2022-11-16T06:48:44.597Z,26.05
2022-11-16T06:51:11.737Z,30.77
2022-11-16T06:53:38.805Z,31.50
2022-11-16T06:56:06.825Z,32.05
2022-11-16T06:58:33.959Z,32.17
2022-11-16T07:01:06.532Z,41.55
2022-11-16T07:03:33.545Z,34.95
2022-11-16T07:06:07.166Z,32.33
2022-11-16T07:08:34.408Z,31.35
2022-11-16T07:11:05.612Z,29.40
2022-11-16T07:13:33.416Z,25.95
2022-11-16T07:16:02.019Z,25.77
2022-11-16T07:18:29.122Z,32.80
2022-11-16T07:20:56.289Z,25.63
2022-11-16T07:23:24.640Z,25.40
2022-11-16T07:25:51.782Z,25.63
2022-11-16T07:28:18.723Z,29.38
2022-11-16T07:30:47.158Z,30.20
2022-11-16T07:33:14.504Z,31.38
2022-11-16T07:35:41.649Z,28.02
2022-11-16T07:38:13.110Z,25.15
2022-11-16T07:40:45.717Z,30.17
2022-11-16T07:43:13.610Z,26.63
2022-11-16T07:45:40.866Z,30.27
2022-11-16T07:48:08.608Z,32.75
2022-11-16T07:50:39.387Z,30.60
2022-11-16T07:53:06.575Z,30.80
2022-11-16T07:55:33.971Z,27.20
2022-11-16T07:58:02.730Z,34.22
2022-11-16T08:02:57.186Z,28.42
2022-11-16T08:05:24.961Z,34.22
2022-11-16T08:07:51.985Z,34.95
2022-11-16T08:10:19.317Z,29.75
2022-11-16T08:12:46.170Z,29.33
2022-11-16T08:15:14.864Z,26.48
2022-11-16T08:17:41.758Z,25.52
2022-11-16T08:20:09.776Z,30.50
2022-11-16T08:22:36.691Z,35.92
2022-11-16T08:25:05.168Z,32.63
2022-11-16T08:27:33.069Z,27.33
2022-11-16T08:30:03.254Z,28.02
2022-11-16T08:32:31.682Z,28.65
2022-11-16T08:34:58.801Z,31.08
2022-11-16T08:37:26.144Z,25.13
2022-11-16T08:39:53.294Z,23.75
2022-11-16T08:42:20.237Z,27.13
2022-11-16T08:44:47.480Z,25.85
2022-11-16T08:47:14.494Z,27.30
2022-11-16T08:49:46.660Z,25.25
2022-11-16T08:52:18.733Z,27.63
2022-11-16T08:54:47.305Z,25.83
2022-11-16T08:57:14.269Z,36.65
2022-11-16T08:59:41.476Z,27.95
2022-11-16T09:02:09.711Z,27.20
2022-11-16T09:04:37.556Z,25.60
2022-11-16T09:07:06.045Z,24.13
2022-11-16T09:09:33.338Z,27.27
2022-11-16T09:12:00.298Z,25.55
2022-11-16T09:14:29.007Z,21.45
2022-11-16T09:16:56.051Z,30.23
2022-11-16T09:19:23.182Z,33.72
2022-11-16T09:21:51.841Z,27.60
2022-11-16T09:24:22.692Z,29.65
2022-11-16T09:26:49.632Z,24.75
2022-11-16T09:29:16.927Z,29.65
2022-11-16T09:31:43.860Z,24.75
2022-11-16T09:34:11.336Z,28.92
2022-11-16T09:36:38.397Z,30.40
2022-11-16T09:42:06.603Z,26.75
2022-11-16T09:44:57.894Z,22.42
2022-11-16T09:47:34.313Z,33.78
2022-11-16T09:50:04.713Z,21.90
2022-11-16T09:52:36.975Z,28.27
2022-11-16T09:55:22.121Z,20.67
2022-11-16T09:57:53.610Z,26.33
2022-11-16T10:00:25.379Z,27.75
2022-11-16T10:03:01.531Z,22.48
2022-11-16T10:05:34.634Z,22.08
2022-11-16T10:08:08.866Z,26.50
2022-11-16T10:10:40.132Z,29.42
2022-11-16T10:13:24.782Z,22.70
2022-11-16T10:16:02.393Z,27.42
2022-11-16T10:18:42.851Z,27.45
2022-11-16T10:21:25.623Z,18.23
2022-11-16T10:24:12.859Z,23.50
2022-11-16T10:26:47.742Z,22.75
2022-11-16T10:29:33.528Z,20.65
2022-11-16T10:32:13.533Z,22.45
2022-11-16T10:34:45.636Z,25.60
2022-11-16T10:37:14.149Z,27.67
2022-11-16T10:39:41.323Z,20.10
2022-11-16T10:42:16.755Z,20.23
2022-11-16T10:44:49.408Z,23.88
2022-11-16T10:47:23.108Z,22.85
2022-11-16T10:49:56.116Z,19.83
2022-11-16T10:52:23.903Z,23.10
2022-11-16T10:54:51.157Z,30.60
2022-11-16T10:57:19.288Z,19.85
2022-11-16T10:59:49.982Z,19.33
2022-11-16T11:02:29.061Z,19.52
2022-11-16T11:07:32.460Z,22.88
2022-11-16T11:09:59.565Z,19.38
2022-11-16T11:12:39.525Z,20.45
2022-11-16T11:15:26.276Z,19.98
2022-11-16T11:18:16.178Z,19.98
2022-11-16T11:20:45.583Z,16.92
2022-11-16T11:23:16.169Z,22.33
2022-11-16T11:25:51.649Z,21.42
2022-11-16T11:28:23.263Z,22.20
2022-11-16T11:30:58.679Z,22.90
2022-11-16T11:33:29.793Z,21.38
2022-11-16T11:36:01.433Z,23.33
2022-11-16T11:38:29.541Z,20.08
2022-11-16T11:40:58.753Z,21.77
2022-11-16T11:43:28.593Z,25.60
2022-11-16T11:46:05.311Z,18.52
2022-11-16T11:48:40.439Z,16.98
2022-11-16T11:51:14.999Z,15.82
2022-11-16T11:53:49.418Z,14.15
2022-11-16T11:56:17.660Z,15.85
2022-11-16T11:58:46.978Z,18.23
2022-11-16T12:01:44.311Z,17.27
2022-11-16T12:04:39.189Z,18.98
2022-11-16T12:07:19.122Z,16.75
2022-11-16T12:09:52.539Z,13.27
2022-11-16T12:12:33.574Z,19.88
2022-11-16T12:15:16.987Z,13.60
2022-11-16T12:17:56.054Z,22.58
2022-11-16T12:20:33.219Z,27.38
2022-11-16T12:23:31.462Z,17.95
2022-11-16T12:26:06.622Z,18.90
2022-11-16T12:28:50.864Z,18.35
2022-11-16T12:31:49.820Z,19.35
2022-11-16T12:34:27.401Z,13.82
2022-11-16T12:37:02.927Z,16.27
2022-11-16T12:39:35.300Z,18.50
2022-11-16T12:42:29.319Z,19.23
2022-11-16T12:45:27.611Z,21.13
2022-11-16T12:48:28.525Z,12.77
2022-11-16T12:51:02.198Z,19.35
2022-11-16T12:53:51.408Z,14.07
2022-11-16T12:56:29.648Z,15.43
2022-11-16T12:59:18.752Z,17.20
2022-11-16T13:04:23.616Z,19.45
2022-11-16T13:06:56.456Z,20.05
2022-11-16T13:09:27.912Z,20.02
2022-11-16T13:11:57.484Z,18.90
2022-11-16T13:14:29.347Z,17.35
2022-11-16T13:17:00.750Z,17.83
2022-11-16T13:19:28.628Z,20.55
2022-11-16T13:22:03.621Z,20.33
2022-11-16T13:24:47.282Z,19.88
2022-11-16T13:27:29.340Z,23.05
2022-11-16T13:30:03.530Z,16.92
2022-11-16T13:32:45.056Z,17.15
2022-11-16T13:35:14.684Z,15.93
2022-11-16T13:37:47.936Z,20.52
2022-11-16T13:40:29.473Z,14.15
2022-11-16T13:43:10.053Z,16.02
2022-11-16T13:45:41.693Z,17.67
2022-11-16T13:48:19.634Z,19.45
2022-11-16T13:50:53.845Z,15.75
2022-11-16T13:56:17.576Z,15.85
2022-11-16T13:58:47.212Z,22.67
2022-11-16T14:01:15.505Z,14.77
2022-11-16T14:03:43.692Z,22.27
2022-11-16T14:06:53.071Z,21.10
2022-11-16T14:09:44.020Z,22.90
2022-11-16T14:12:50.107Z,27.20
2022-11-16T14:15:19.004Z,21.75
2022-11-16T14:17:50.987Z,18.30
2022-11-16T14:20:43.622Z,29.05
2022-11-16T14:23:36.711Z,27.77
2022-11-16T14:26:19.053Z,27.77
2022-11-16T14:29:16.129Z,23.25
2022-11-16T14:31:49.959Z,24.95
2022-11-16T14:34:20.669Z,28.95
2022-11-16T14:36:49.457Z,26.92
2022-11-16T14:39:40.051Z,29.67
2022-11-16T14:42:17.675Z,23.40
2022-11-16T14:44:45.475Z,24.25
2022-11-16T14:47:24.096Z,28.55
2022-11-16T14:49:52.063Z,27.35
2022-11-16T14:52:27.699Z,23.35
2022-11-16T14:55:00.147Z,22.58
2022-11-16T14:57:28.723Z,24.80
2022-11-16T15:02:36.718Z,22.20
2022-11-16T15:05:06.733Z,27.42
2022-11-16T15:07:33.856Z,25.77
2022-11-16T15:10:02.235Z,23.83
2022-11-16T15:12:41.616Z,22.57
2022-11-16T15:15:14.861Z,27.85
2022-11-16T15:17:43.972Z,27.67
2022-11-16T15:20:20.430Z,24.67
2022-11-16T15:22:52.637Z,33.97
2022-11-16T15:25:28.717Z,30.75
2022-11-16T15:27:58.478Z,33.65
2022-11-16T15:30:27.962Z,28.73
2022-11-16T15:32:55.672Z,25.70
2022-11-16T15:35:24.822Z,29.13
2022-11-16T15:40:34.911Z,27.55
2022-11-16T15:43:05.855Z,36.50
2022-11-16T15:45:34.092Z,26.95
2022-11-16T15:48:04.050Z,30.48
2022-11-16T15:50:31.678Z,28.63
2022-11-16T15:53:00.928Z,27.13
2022-11-16T15:55:34.569Z,29.92
2022-11-16T15:58:14.255Z,31.67
2022-11-16T16:00:42.253Z,25.13
2022-11-16T16:03:20.633Z,23.42
2022-11-16T16:05:49.414Z,29.88
2022-11-16T16:08:31.712Z,29.40
2022-11-16T16:11:05.657Z,37.67
2022-11-16T16:13:36.016Z,43.53
2022-11-16T16:16:29.435Z,42.40
2022-11-16T16:19:01.593Z,35.05
2022-11-16T16:21:42.719Z,34.28
2022-11-16T16:24:12.028Z,41.53
2022-11-16T16:26:39.220Z,43.20
2022-11-16T16:29:08.123Z,46.55
2022-11-16T16:31:35.474Z,53.60
2022-11-16T16:34:11.504Z,52.95
2022-11-16T16:36:38.868Z,50.30
2022-11-16T16:39:05.735Z,55.95
2022-11-16T16:41:33.022Z,59.47
2022-11-16T16:43:59.913Z,67.47
2022-11-16T16:46:30.773Z,53.55
2022-11-16T16:48:57.636Z,52.05
2022-11-16T16:51:24.778Z,49.15
2022-11-16T16:53:51.992Z,70.03
2022-11-16T16:56:19.956Z,53.30
2022-11-16T16:58:46.870Z,51.20
2022-11-16T17:01:14.258Z,53.15
2022-11-16T17:03:42.682Z,49.92
2022-11-16T17:06:10.046Z,48.53
2022-11-16T17:08:38.115Z,40.50
2022-11-16T17:11:05.496Z,43.10
2022-11-16T17:13:33.020Z,46.90
2022-11-16T17:16:04.425Z,45.10
2022-11-16T17:18:31.265Z,42.88
2022-11-16T17:21:04.999Z,51.35
2022-11-16T17:23:32.220Z,46.47
2022-11-16T17:26:02.521Z,48.85
2022-11-16T17:28:29.386Z,44.22
2022-11-16T17:31:00.929Z,47.88
2022-11-16T17:33:27.936Z,46.70
2022-11-16T17:35:56.281Z,45.05
2022-11-16T17:38:24.609Z,37.57
2022-11-16T17:40:51.796Z,43.00
2022-11-16T17:43:18.800Z,39.90
2022-11-16T17:45:45.899Z,43.88
2022-11-16T17:48:12.891Z,44.53
2022-11-16T17:50:40.103Z,51.85
2022-11-16T17:53:07.315Z,42.20
2022-11-16T17:55:37.664Z,42.58
2022-11-16T17:58:04.463Z,36.88
2022-11-16T18:00:31.802Z,41.17
2022-11-16T18:02:58.984Z,41.28
2022-11-16T18:05:26.353Z,42.75
2022-11-16T18:07:53.236Z,43.60
2022-11-16T18:10:20.316Z,45.97
2022-11-16T18:12:48.607Z,34.83
2022-11-16T18:15:27.882Z,39.28
2022-11-16T18:17:56.701Z,39.38
2022-11-16T18:20:24.319Z,39.72
2022-11-16T18:22:51.511Z,36.22
2022-11-16T18:25:18.600Z,34.65
2022-11-16T18:27:45.489Z,34.60
2022-11-16T18:30:15.859Z,44.55
2022-11-16T18:32:43.006Z,41.45
2022-11-16T18:35:10.246Z,36.53
2022-11-16T18:37:37.171Z,35.78
2022-11-16T18:40:05.246Z,38.33
2022-11-16T18:42:32.099Z,29.63
2022-11-16T18:44:59.356Z,35.63
2022-11-16T18:47:27.672Z,33.03
2022-11-16T18:49:55.053Z,39.30
2022-11-16T18:52:21.918Z,38.67
2022-11-16T18:54:49.381Z,40.80
2022-11-16T18:57:16.263Z,34.10
2022-11-16T18:59:43.657Z,39.65
2022-11-16T19:02:14.175Z,36.92
2022-11-16T19:04:43.628Z,36.47
2022-11-16T19:07:10.692Z,40.00
2022-11-16T19:09:37.948Z,33.45
2022-11-16T19:12:05.292Z,27.48
2022-11-16T19:14:32.482Z,26.48
2022-11-16T19:16:59.452Z,26.63
2022-11-16T19:19:27.810Z,22.65
2022-11-16T19:21:57.224Z,30.83
2022-11-16T19:24:24.976Z,19.15
2022-11-16T19:26:51.974Z,22.73
2022-11-16T19:29:19.116Z,18.77
2022-11-16T19:31:46.065Z,25.40
2022-11-16T19:34:13.454Z,19.15
2022-11-16T19:36:40.453Z,16.95
2022-11-16T19:39:09.295Z,18.63
2022-11-16T19:41:36.321Z,25.52
2022-11-16T19:44:03.643Z,22.05
2022-11-16T19:46:32.243Z,19.85
2022-11-16T19:49:00.456Z,18.90
2022-11-16T19:51:29.152Z,17.80
2022-11-16T19:56:25.057Z,24.35
2022-11-16T19:58:52.603Z,22.33
2022-11-16T20:01:21.861Z,19.10
2022-11-16T20:03:52.467Z,18.83
2022-11-16T20:06:24.937Z,20.60
2022-11-16T20:09:08.459Z,20.13
2022-11-16T20:11:38.536Z,22.02
2022-11-16T20:14:07.927Z,17.98
2022-11-16T20:16:39.653Z,18.08
2022-11-16T20:19:07.704Z,18.30
2022-11-16T20:21:37.528Z,23.20
2022-11-16T20:24:07.376Z,17.55
2022-11-16T20:26:41.419Z,20.65
2022-11-16T20:29:10.619Z,19.73
2022-11-16T20:31:42.649Z,18.77
2022-11-16T20:34:14.213Z,20.23
2022-11-16T20:36:42.688Z,20.15
2022-11-16T20:39:14.655Z,22.38
2022-11-16T20:41:44.004Z,20.85
2022-11-16T20:44:16.667Z,20.45
2022-11-16T20:46:45.202Z,19.88
2022-11-16T20:49:15.311Z,21.65
2022-11-16T20:51:42.340Z,24.48
2022-11-16T20:54:09.572Z,20.55
2022-11-16T20:56:36.477Z,21.30
2022-11-16T20:59:05.465Z,22.90
2022-11-16T21:01:32.408Z,24.13
2022-11-16T21:04:01.884Z,22.20
2022-11-16T21:06:29.506Z,21.38
2022-11-16T21:08:56.843Z,21.33
2022-11-16T21:11:25.436Z,23.20
2022-11-16T21:14:11.527Z,21.65
2022-11-16T21:16:40.254Z,23.67
2022-11-16T21:19:07.705Z,24.45
2022-11-16T21:21:34.739Z,21.77
2022-11-16T21:24:01.987Z,24.27
2022-11-16T21:26:30.451Z,21.48
2022-11-16T21:28:58.844Z,23.20
2022-11-16T21:31:27.824Z,21.43
2022-11-16T21:33:56.790Z,25.80
2022-11-16T21:36:26.456Z,24.42
2022-11-16T21:38:54.205Z,24.10
2022-11-16T21:41:22.508Z,23.60
2022-11-16T21:43:49.867Z,21.27
2022-11-16T21:46:18.462Z,20.42
2022-11-16T21:48:47.988Z,24.58
2022-11-16T21:51:18.001Z,23.75
2022-11-16T21:53:45.858Z,18.17
2022-11-16T21:56:15.350Z,20.92
2022-11-16T21:58:45.114Z,22.20
2022-11-16T22:01:16.503Z,20.27
2022-11-16T22:03:45.041Z,21.92
2022-11-16T22:06:32.921Z,24.98
2022-11-16T22:09:02.037Z,20.20
2022-11-16T22:11:33.901Z,22.58
2022-11-16T22:14:04.167Z,21.25
2022-11-16T22:16:31.047Z,20.42
2022-11-16T22:19:02.946Z,22.50
2022-11-16T22:21:30.103Z,20.20
2022-11-16T22:24:01.890Z,20.30
2022-11-16T22:26:29.289Z,21.45
2022-11-16T22:28:56.225Z,27.50
2022-11-16T22:31:23.610Z,21.25
2022-11-16T22:33:52.061Z,21.52
2022-11-16T22:36:19.270Z,18.48
2022-11-16T22:38:46.125Z,25.58
2022-11-16T22:41:14.641Z,24.90
2022-11-16T22:43:41.844Z,21.65
2022-11-16T22:46:10.743Z,21.10
2022-11-16T22:48:39.668Z,22.40
2022-11-16T22:51:20.750Z,23.67
2022-11-16T22:53:48.148Z,18.05
2022-11-16T22:56:16.713Z,22.67
2022-11-16T22:58:43.714Z,21.52
2022-11-16T23:01:11.020Z,25.20
2022-11-16T23:03:38.762Z,20.95
2022-11-16T23:06:06.920Z,22.67
2022-11-16T23:08:35.362Z,20.40
2022-11-16T23:11:23.129Z,22.60
2022-11-16T23:14:12.109Z,18.20
2022-11-16T23:16:40.297Z,20.27
2022-11-16T23:19:27.819Z,21.38
2022-11-16T23:22:14.138Z,22.20
2022-11-16T23:24:59.928Z,23.75
2022-11-16T23:27:31.283Z,27.63
2022-11-16T23:30:01.721Z,22.70
2022-11-16T23:32:29.194Z,19.88
2022-11-16T23:34:56.571Z,19.50
2022-11-16T23:37:23.968Z,21.85
2022-11-16T23:39:50.941Z,20.48
2022-11-16T23:42:37.034Z,20.48
2022-11-16T23:45:06.655Z,17.83
2022-11-16T23:47:33.809Z,17.08
2022-11-16T23:50:00.743Z,18.75
2022-11-16T23:52:30.118Z,17.48
2022-11-16T23:54:57.011Z,18.23
2022-11-16T23:57:24.104Z,21.45
2022-11-16T23:59:51.001Z,21.13
